Milford, Texas
Current Conditions -  °F | °C
As of 4:55 PM on Monday 24 Nov 2014 (Local Time) from KINJ Reporting Station
Clear Clear  
Wind Chill: 57°   Ceiling: Unl
Heat Index: 57°   Visibility: 10mi
Dew Point: 27°   Wind: 7mph
Humidity: 31%   Direction: 310°NW
Pressure: 30.06"   Gusts: NA
Location:  32.12°N, 96.95°W
Report Text: KINJ 242255Z AUTO 31006KT 10SM CLR 14/M03 A3006 RMK AO2 T01401029
Loading
Personal Weather Stations






























Interactive Weather Map New forecast layout! Learn more

10-Day Weather Forecast

Advertisements
Track Severe Weather on mobile